Time;durP1;ratioP1;P1;durP2;ratioP2;P2;SDS_P1;SDS_P2;PMS_P1;PMS_P2;Temp;Humidity;BMP_temperature;BMP_pressure;BME280_temperature;BME280_humidity;BME280_pressure;Samples;Min_cycle;Max_cycle;Signal;HPM_P1;HPM_P2
2021/11/16 00:01:24;;;;;;;20.73;10.57;;;10.60;81.30;;;;;;6272849;28;20183;-80
2021/11/16 00:04:26;;;;;;;26.38;11.38;;;10.60;81.60;;;;;;6272819;28;20407;-79
2021/11/16 00:07:27;;;;;;;25.08;10.25;;;10.70;81.70;;;;;;6273568;28;20049;-79
2021/11/16 00:10:31;;;;;;;26.55;9.85;;;10.70;81.90;;;;;;6272615;28;20055;-80
2021/11/16 00:13:33;;;;;;;25.38;11.07;;;10.70;81.80;;;;;;6272966;28;20153;-84
2021/11/16 00:16:36;;;;;;;26.80;11.40;;;10.70;81.80;;;;;;6277356;28;20128;-84
2021/11/16 00:19:39;;;;;;;24.13;9.63;;;10.70;81.80;;;;;;6277869;28;20053;-83
2021/11/16 00:22:42;;;;;;;25.30;10.30;;;10.70;81.60;;;;;;6278093;28;20049;-84
2021/11/16 00:25:46;;;;;;;28.20;9.43;;;10.60;82.40;;;;;;6278585;28;20061;-83
2021/11/16 00:28:48;;;;;;;20.92;11.05;;;10.60;82.00;;;;;;6278656;28;20457;-82
2021/11/16 00:31:50;;;;;;;24.63;10.98;;;10.50;82.10;;;;;;6278878;28;20049;-80
2021/11/16 00:34:52;;;;;;;21.80;10.32;;;10.50;82.20;;;;;;6281096;28;20081;-82
2021/11/16 00:37:54;;;;;;;31.63;12.35;;;10.60;82.30;;;;;;6283232;28;20136;-82
2021/11/16 00:40:57;;;;;;;22.65;11.50;;;10.60;82.40;;;;;;6283068;28;20503;-83
2021/11/16 00:43:59;;;;;;;29.13;11.50;;;10.60;82.30;;;;;;6283277;28;20045;-82
2021/11/16 00:47:01;;;;;;;20.52;11.23;;;10.60;82.40;;;;;;6282873;28;20162;-81
2021/11/16 00:50:03;;;;;;;26.00;11.23;;;10.60;82.30;;;;;;6283091;28;20049;-81
2021/11/16 00:53:05;;;;;;;25.65;11.90;;;10.60;82.10;;;;;;6283300;28;20518;-79
2021/11/16 00:56:10;;;;;;;31.88;11.98;;;10.50;81.80;;;;;;6282598;28;20128;-81
2021/11/16 00:59:12;;;;;;;23.40;10.80;;;10.50;81.60;;;;;;6282387;28;20183;-84
2021/11/16 01:02:15;;;;;;;24.15;10.35;;;10.50;81.20;;;;;;6282358;28;20118;-82
2021/11/16 01:05:17;;;;;;;22.77;11.32;;;10.50;81.10;;;;;;6282506;28;20100;-83
2021/11/16 01:08:19;;;;;;;23.00;11.55;;;10.50;80.30;;;;;;6282417;28;20262;-83
2021/11/16 01:11:22;;;;;;;24.55;10.07;;;10.40;80.40;;;;;;6286163;28;20076;-82
2021/11/16 01:14:24;;;;;;;30.27;11.70;;;10.50;80.30;;;;;;6286026;28;20046;-82
2021/11/16 01:17:26;;;;;;;26.42;11.18;;;10.50;80.20;;;;;;6283551;28;20128;-81
2021/11/16 01:20:29;;;;;;;27.27;11.10;;;10.50;80.00;;;;;;6282538;28;20418;-82
2021/11/16 01:23:31;;;;;;;25.42;11.45;;;10.50;79.50;;;;;;6283635;28;20128;-82
2021/11/16 01:26:34;;;;;;;24.88;10.15;;;10.50;79.40;;;;;;6281833;28;20065;-81
2021/11/16 01:29:38;;;;;;;19.08;9.40;;;10.50;79.20;;;;;;6282933;28;20071;-84
2021/11/16 01:32:43;;;;;;;30.02;11.23;;;10.60;79.20;;;;;;6282232;28;20051;-82
2021/11/16 01:35:47;;;;;;;24.83;10.40;;;10.60;79.20;;;;;;6282473;28;20045;-81
2021/11/16 01:38:51;;;;;;;24.17;10.88;;;10.50;79.30;;;;;;6283852;28;20135;-82
2021/11/16 01:41:55;;;;;;;24.33;10.63;;;10.60;79.40;;;;;;6282903;28;20060;-82
2021/11/16 01:44:57;;;;;;;25.15;11.43;;;10.50;79.60;;;;;;6282336;28;20048;-80
2021/11/16 01:47:59;;;;;;;27.40;10.70;;;10.50;79.70;;;;;;6282235;28;20422;-80
2021/11/16 01:51:02;;;;;;;25.10;10.73;;;10.50;79.90;;;;;;6282724;28;20090;-80
2021/11/16 01:54:06;;;;;;;20.25;9.43;;;10.40;79.90;;;;;;6282192;28;20568;-81
2021/11/16 01:57:10;;;;;;;25.70;11.30;;;10.30;80.20;;;;;;6281646;28;20533;-81
2021/11/16 02:00:15;;;;;;;25.15;9.10;;;10.30;80.20;;;;;;6281770;28;20044;-81
2021/11/16 02:03:18;;;;;;;21.48;10.98;;;10.30;80.40;;;;;;6283229;28;20195;-82
2021/11/16 02:06:23;;;;;;;21.42;9.50;;;10.30;80.70;;;;;;6281669;28;20469;-82
2021/11/16 02:09:25;;;;;;;26.67;11.55;;;10.30;80.70;;;;;;6281900;28;20073;-81
2021/11/16 02:12:28;;;;;;;24.42;9.73;;;10.40;80.50;;;;;;6281042;28;20124;-82
2021/11/16 02:15:31;;;;;;;24.40;10.80;;;10.30;80.20;;;;;;6281657;28;20055;-84
2021/11/16 02:18:32;;;;;;;23.40;10.05;;;10.30;80.00;;;;;;6289423;28;20087;-79
2021/11/16 02:21:36;;;;;;;31.02;11.13;;;10.30;79.90;;;;;;6282378;28;20045;-83
2021/11/16 02:24:38;;;;;;;26.67;11.23;;;10.30;80.10;;;;;;6282533;28;20045;-84
2021/11/16 02:27:40;;;;;;;27.63;10.77;;;10.30;79.90;;;;;;6282227;28;20061;-84
2021/11/16 02:30:42;;;;;;;25.58;11.23;;;10.30;79.80;;;;;;6281038;28;20558;-84
2021/11/16 02:33:45;;;;;;;29.50;11.30;;;10.40;79.70;;;;;;6280604;28;20074;-83
2021/11/16 02:36:49;;;;;;;29.70;11.15;;;10.30;79.70;;;;;;6280485;28;20045;-84
2021/11/16 02:39:51;;;;;;;28.13;11.57;;;10.40;79.30;;;;;;6281626;28;20059;-84
2021/11/16 02:42:52;;;;;;;26.38;10.35;;;10.40;79.20;;;;;;6282287;28;20067;-85
2021/11/16 02:45:54;;;;;;;28.60;11.52;;;10.40;79.50;;;;;;6282064;28;20507;-84
2021/11/16 02:48:56;;;;;;;30.33;11.40;;;10.40;79.20;;;;;;6284007;28;20124;-85
2021/11/16 02:51:59;;;;;;;33.50;10.70;;;10.40;79.40;;;;;;6284904;28;20136;-84
2021/11/16 02:55:01;;;;;;;27.20;11.45;;;10.40;79.60;;;;;;6284653;28;20132;-85
2021/11/16 02:58:04;;;;;;;25.80;10.93;;;10.50;79.60;;;;;;6295117;28;20037;-83
2021/11/16 03:01:08;;;;;;;28.25;10.88;;;10.50;79.20;;;;;;6279608;28;20048;-82
2021/11/16 03:04:10;;;;;;;29.20;10.77;;;10.40;79.00;;;;;;6279570;28;20051;-84
2021/11/16 03:07:15;;;;;;;27.70;10.20;;;10.40;79.30;;;;;;6279586;28;20140;-83
2021/11/16 03:10:17;;;;;;;21.45;9.75;;;10.50;79.50;;;;;;6278934;28;20040;-81
2021/11/16 03:13:19;;;;;;;28.42;10.57;;;10.50;79.50;;;;;;6279601;28;20388;-83
2021/11/16 03:16:23;;;;;;;23.27;10.10;;;10.50;79.70;;;;;;6279627;28;20175;-81
2021/11/16 03:19:25;;;;;;;22.83;10.25;;;10.50;79.90;;;;;;6279589;28;20053;-83
2021/11/16 03:22:33;;;;;;;24.35;10.45;;;10.40;80.10;;;;;;6279925;28;20040;-84
2021/11/16 03:25:38;;;;;;;25.05;10.48;;;10.40;80.20;;;;;;6278740;28;20082;-82
2021/11/16 03:28:43;;;;;;;28.25;11.77;;;10.40;80.10;;;;;;6278730;28;20391;-84
2021/11/16 03:31:50;;;;;;;24.38;10.27;;;10.50;80.20;;;;;;6278956;28;20049;-82
2021/11/16 03:34:52;;;;;;;25.52;10.25;;;10.50;80.10;;;;;;6280040;28;20175;-82
2021/11/16 03:37:58;;;;;;;30.10;10.85;;;10.40;80.00;;;;;;6279423;28;20126;-83
2021/11/16 03:41:00;;;;;;;31.52;10.43;;;10.40;80.40;;;;;;6278562;28;20045;-85
2021/11/16 03:44:02;;;;;;;26.13;9.77;;;10.40;80.60;;;;;;6279093;28;20126;-83
2021/11/16 03:47:05;;;;;;;26.25;11.88;;;10.40;80.70;;;;;;6279540;28;20128;-81
2021/11/16 03:50:08;;;;;;;24.60;9.52;;;10.40;80.90;;;;;;6279151;28;20041;-84
2021/11/16 03:53:12;;;;;;;26.90;11.25;;;10.40;81.00;;;;;;6279057;28;20120;-81
2021/11/16 03:56:14;;;;;;;26.08;10.23;;;10.40;81.10;;;;;;6279225;28;20452;-84
2021/11/16 03:59:16;;;;;;;26.20;10.48;;;10.40;81.10;;;;;;6279127;28;20053;-83
2021/11/16 04:02:18;;;;;;;24.10;11.30;;;10.40;81.20;;;;;;6278014;28;20049;-83
2021/11/16 04:05:20;;;;;;;25.48;10.20;;;10.40;81.20;;;;;;6278194;28;20124;-84
2021/11/16 04:08:23;;;;;;;25.85;10.57;;;10.30;81.40;;;;;;6278701;28;20041;-83
2021/11/16 04:11:25;;;;;;;27.15;11.02;;;10.30;81.50;;;;;;6277870;28;20487;-84
2021/11/16 04:14:27;;;;;;;22.25;10.05;;;10.40;81.60;;;;;;6277966;28;20064;-84
2021/11/16 04:17:29;;;;;;;23.58;9.77;;;10.30;81.70;;;;;;6278503;28;20140;-82
2021/11/16 04:20:34;;;;;;;27.60;10.20;;;10.40;81.80;;;;;;6277595;28;20045;-81
2021/11/16 04:23:37;;;;;;;32.97;10.70;;;10.30;81.70;;;;;;6278791;28;20112;-84
2021/11/16 04:26:39;;;;;;;24.67;9.95;;;10.30;81.80;;;;;;6278786;28;20514;-84
2021/11/16 04:29:41;;;;;;;23.55;9.43;;;10.30;82.00;;;;;;6278866;28;20503;-84
2021/11/16 04:32:43;;;;;;;29.10;11.48;;;10.30;82.00;;;;;;6278758;28;20067;-83
2021/11/16 04:35:45;;;;;;;25.35;10.48;;;10.30;81.90;;;;;;6278548;28;20049;-83
2021/11/16 04:38:49;;;;;;;29.65;10.48;;;10.40;82.10;;;;;;6278439;28;20124;-83
2021/11/16 04:41:50;;;;;;;26.95;10.55;;;10.40;82.20;;;;;;6277895;28;20498;-81
2021/11/16 04:44:52;;;;;;;29.77;11.65;;;10.30;82.20;;;;;;6280406;28;20045;-82
2021/11/16 04:47:58;;;;;;;29.80;9.50;;;10.40;82.30;;;;;;6282839;28;20045;-84
2021/11/16 04:51:22;;;;;;;27.75;10.70;;;10.30;82.40;;;;;;6280440;28;20048;-85
2021/11/16 04:54:39;;;;;;;23.33;10.10;;;10.30;82.50;;;;;;6279682;28;20049;-84
2021/11/16 05:04:20;;;;;;;19.95;9.00;;;10.20;83.00;;;;;;6278216;28;20041;-83
2021/11/16 05:07:25;;;;;;;31.00;11.45;;;10.30;83.10;;;;;;6278867;28;20055;-83
2021/11/16 05:10:29;;;;;;;28.10;10.80;;;10.20;83.10;;;;;;6277754;28;20064;-83
2021/11/16 05:13:30;;;;;;;25.92;10.48;;;10.20;83.20;;;;;;6277615;28;20048;-84
2021/11/16 05:16:32;;;;;;;25.63;10.77;;;10.20;83.30;;;;;;6277018;28;20108;-84
2021/11/16 05:19:34;;;;;;;24.52;10.30;;;10.20;83.40;;;;;;6277909;28;20053;-83
2021/11/16 05:22:36;;;;;;;29.77;10.77;;;10.20;83.40;;;;;;6282184;28;20045;-81
2021/11/16 05:25:39;;;;;;;26.02;10.93;;;10.20;83.40;;;;;;6281711;28;20045;-82
2021/11/16 05:28:41;;;;;;;29.92;11.98;;;10.20;83.60;;;;;;6281946;28;20037;-84
2021/11/16 05:31:43;;;;;;;34.28;11.43;;;10.30;83.60;;;;;;6282845;28;20447;-84
2021/11/16 05:34:46;;;;;;;26.98;12.18;;;10.30;83.50;;;;;;6282075;28;20056;-85
2021/11/16 05:37:48;;;;;;;30.70;12.05;;;10.30;84.00;;;;;;6282186;28;20459;-81
2021/11/16 05:40:51;;;;;;;32.97;12.48;;;10.30;83.40;;;;;;6282254;28;20049;-83
2021/11/16 05:43:53;;;;;;;34.58;13.68;;;10.30;83.30;;;;;;6282751;28;20049;-84
2021/11/16 05:46:55;;;;;;;31.02;12.18;;;10.30;83.10;;;;;;6282668;28;20572;-84
2021/11/16 05:49:57;;;;;;;31.35;13.07;;;10.30;83.10;;;;;;6281662;28;20131;-82
2021/11/16 05:52:59;;;;;;;24.83;11.93;;;10.20;83.80;;;;;;6282349;28;20150;-83
2021/11/16 05:56:02;;;;;;;24.92;11.00;;;10.20;83.70;;;;;;6278836;28;20048;-84
2021/11/16 05:59:05;;;;;;;24.90;10.55;;;10.20;83.80;;;;;;6246734;28;20069;-84
2021/11/16 06:02:10;;;;;;;30.48;11.32;;;10.20;83.80;;;;;;6232089;28;20113;-83
2021/11/16 06:05:11;;;;;;;30.98;13.25;;;10.20;83.70;;;;;;6213331;28;20057;-82
2021/11/16 06:08:21;;;;;;;34.85;12.77;;;10.10;83.80;;;;;;6255660;28;20115;-83
2021/11/16 06:11:25;;;;;;;31.48;12.25;;;10.20;84.10;;;;;;6268484;28;20095;-80
2021/11/16 06:14:27;;;;;;;29.20;13.23;;;10.20;84.90;;;;;;6259584;28;20053;-79
2021/11/16 06:17:29;;;;;;;34.65;12.40;;;10.20;84.60;;;;;;6253621;28;20513;-79
2021/11/16 06:20:33;;;;;;;30.10;12.18;;;10.20;84.70;;;;;;6252782;28;20514;-78
2021/11/16 06:23:35;;;;;;;36.30;13.38;;;10.20;84.50;;;;;;6253486;28;20059;-79
2021/11/16 06:26:38;;;;;;;29.42;11.63;;;10.20;84.20;;;;;;6252508;28;20104;-80
2021/11/16 06:29:40;;;;;;;25.77;12.35;;;10.20;84.20;;;;;;6253985;28;20056;-79
2021/11/16 06:32:42;;;;;;;32.40;14.38;;;10.20;84.20;;;;;;6255871;28;20045;-80
2021/11/16 06:35:44;;;;;;;34.70;13.20;;;10.30;84.00;;;;;;6258461;28;20136;-81
2021/11/16 06:38:46;;;;;;;41.42;13.27;;;10.30;84.20;;;;;;6260118;28;20129;-81
2021/11/16 06:41:51;;;;;;;30.98;12.65;;;10.30;84.20;;;;;;6285939;28;20045;-79
2021/11/16 06:44:52;;;;;;;29.77;13.13;;;10.30;84.00;;;;;;6282931;28;20045;-80
2021/11/16 06:47:54;;;;;;;35.55;14.57;;;10.30;84.10;;;;;;6281075;28;20045;-82
2021/11/16 06:50:58;;;;;;;22.88;11.55;;;10.30;83.90;;;;;;6278461;28;20055;-81
2021/11/16 06:53:59;;;;;;;35.42;13.63;;;10.20;84.00;;;;;;6277577;28;20052;-82
2021/11/16 06:57:03;;;;;;;34.63;13.82;;;10.20;84.60;;;;;;6275592;28;20128;-81
2021/11/16 07:00:08;;;;;;;34.85;15.18;;;10.30;83.80;;;;;;6276596;28;20049;-80
2021/11/16 07:03:10;;;;;;;57.35;19.58;;;10.30;83.60;;;;;;6277879;28;20054;-81
2021/11/16 07:06:11;;;;;;;83.28;28.55;;;10.30;83.70;;;;;;6271586;28;20038;-80
2021/11/16 07:09:15;;;;;;;57.33;22.25;;;10.30;83.70;;;;;;6251773;28;20051;-81
2021/11/16 07:12:24;;;;;;;54.90;18.10;;;10.30;83.70;;;;;;6251272;28;20045;-80
2021/11/16 07:15:32;;;;;;;43.10;18.58;;;10.30;83.90;;;;;;6252302;28;20049;-80
2021/11/16 07:18:34;;;;;;;;;;;10.30;83.80;;;;;;6252510;28;20060;-81
2021/11/16 07:21:45;;;;;;;34.80;15.15;;;10.30;83.70;;;;;;6251550;28;20533;-80
2021/11/16 07:24:49;;;;;;;33.33;14.88;;;10.30;83.50;;;;;;6251909;28;20470;-80
2021/11/16 07:27:54;;;;;;;40.47;15.82;;;10.30;83.60;;;;;;6250566;28;20051;-81
2021/11/16 07:30:56;;;;;;;34.72;14.88;;;10.30;83.70;;;;;;6251936;28;20057;-80
2021/11/16 07:34:07;;;;;;;43.55;16.33;;;10.30;83.80;;;;;;6250763;28;20182;-80
2021/11/16 07:37:11;;;;;;;43.92;15.40;;;10.30;83.60;;;;;;6250726;28;20402;-81
2021/11/16 07:40:17;;;;;;;45.17;16.65;;;10.40;83.60;;;;;;6250145;28;20125;-82
2021/11/16 07:43:22;;;;;;;34.60;14.85;;;10.40;83.50;;;;;;6250715;28;20050;-80
2021/11/16 07:46:24;;;;;;;44.20;16.08;;;10.40;83.50;;;;;;6251178;28;20053;-80
2021/11/16 07:49:26;;;;;;;38.80;15.25;;;10.40;83.40;;;;;;6250007;28;20103;-80
2021/11/16 07:52:29;;;;;;;46.22;16.83;;;10.40;83.30;;;;;;6250585;28;20100;-81
2021/11/16 07:55:30;;;;;;;41.22;16.48;;;10.40;83.30;;;;;;6252378;28;20053;-81
2021/11/16 07:58:36;;;;;;;39.10;15.63;;;10.40;83.30;;;;;;6250756;28;20120;-82
2021/11/16 08:01:41;;;;;;;37.50;15.38;;;10.40;83.30;;;;;;6250299;28;20144;-79
2021/11/16 08:04:47;;;;;;;49.55;16.73;;;10.40;83.40;;;;;;6251164;28;20496;-81
2021/11/16 08:08:13;;;;;;;36.30;16.13;;;10.40;83.40;;;;;;6250937;28;20124;-79
2021/11/16 08:11:19;;;;;;;40.10;16.42;;;10.50;83.40;;;;;;6251439;28;20056;-82
2021/11/16 08:14:22;;;;;;;40.63;14.95;;;10.50;83.40;;;;;;6250569;28;20056;-80
2021/11/16 08:17:25;;;;;;;35.85;14.18;;;10.50;83.40;;;;;;6250040;28;20064;-82
2021/11/16 08:20:27;;;;;;;35.97;14.77;;;10.50;83.40;;;;;;6251288;28;20103;-79
2021/11/16 08:23:29;;;;;;;41.20;15.90;;;10.60;83.50;;;;;;6256537;28;20064;-81
2021/11/16 08:26:34;;;;;;;46.42;17.42;;;10.60;83.40;;;;;;6252491;28;20124;-82
2021/11/16 08:29:40;;;;;;;38.00;15.35;;;10.60;83.50;;;;;;6250485;28;20434;-80
2021/11/16 08:32:45;;;;;;;48.92;15.68;;;10.60;83.40;;;;;;6253154;28;20052;-82
2021/11/16 08:35:48;;;;;;;32.72;14.07;;;10.60;83.20;;;;;;6252044;28;20088;-81
2021/11/16 08:38:51;;;;;;;39.63;14.80;;;10.60;83.40;;;;;;6248911;28;20097;-80
2021/11/16 08:41:52;;;;;;;35.15;15.30;;;10.60;83.50;;;;;;6250472;28;20053;-80
2021/11/16 08:45:01;;;;;;;37.53;15.52;;;10.60;83.60;;;;;;6250330;28;20136;-81
2021/11/16 08:48:08;;;;;;;42.47;16.52;;;10.70;83.50;;;;;;6249852;28;20053;-78
2021/11/16 08:51:17;;;;;;;39.38;14.43;;;10.60;83.30;;;;;;6250713;28;20053;-81
2021/11/16 08:54:25;;;;;;;41.47;16.20;;;10.70;83.30;;;;;;6250237;28;20128;-81
2021/11/16 08:57:30;;;;;;;40.72;15.20;;;10.70;83.20;;;;;;6254564;28;20068;-81
2021/11/16 09:00:35;;;;;;;36.85;15.00;;;10.70;83.20;;;;;;6254672;28;20045;-80
2021/11/16 09:03:41;;;;;;;42.08;15.40;;;10.70;83.10;;;;;;6256672;28;20065;-81
2021/11/16 09:06:43;;;;;;;41.72;16.70;;;10.80;83.00;;;;;;6255604;28;20033;-82
2021/11/16 09:10:01;;;;;;;37.85;15.23;;;10.80;83.00;;;;;;6255988;28;20056;-81
2021/11/16 09:13:05;;;;;;;30.23;12.40;;;10.80;83.10;;;;;;6257681;28;20172;-81
2021/11/16 09:16:10;;;;;;;39.22;14.98;;;10.90;83.10;;;;;;6257097;28;20184;-81
2021/11/16 09:19:24;;;;;;;40.53;15.95;;;10.80;83.30;;;;;;6256525;28;20069;-81
2021/11/16 09:22:25;;;;;;;39.50;15.88;;;10.90;83.20;;;;;;6257383;28;20124;-81
2021/11/16 09:25:31;;;;;;;43.58;17.67;;;11.00;83.00;;;;;;6256623;28;20046;-78
2021/11/16 09:28:36;;;;;;;37.05;14.38;;;11.00;83.00;;;;;;6280410;28;20060;-81
2021/11/16 09:31:44;;;;;;;41.90;15.35;;;10.90;83.60;;;;;;6279344;28;20586;-80
2021/11/16 09:34:51;;;;;;;37.80;15.10;;;10.90;83.00;;;;;;6278827;28;20045;-81
2021/11/16 09:37:52;;;;;;;42.25;16.02;;;11.00;83.10;;;;;;6266588;28;20041;-79
2021/11/16 09:40:54;;;;;;;39.90;15.45;;;10.90;83.10;;;;;;6255223;28;20050;-80
2021/11/16 09:44:05;;;;;;;32.97;14.20;;;10.90;83.20;;;;;;6253917;28;20053;-81
2021/11/16 09:47:15;;;;;;;35.55;13.88;;;10.90;83.20;;;;;;6255839;28;20186;-78
2021/11/16 09:50:21;;;;;;;44.67;16.75;;;10.80;83.80;;;;;;6254134;28;20045;-80
2021/11/16 09:53:23;;;;;;;41.53;17.55;;;10.80;83.60;;;;;;6254446;28;20208;-80
2021/11/16 09:56:26;;;;;;;44.80;16.58;;;10.80;83.80;;;;;;6254947;28;20038;-80
2021/11/16 09:59:27;;;;;;;35.55;15.23;;;10.80;83.80;;;;;;6254885;28;20046;-81
2021/11/16 10:02:32;;;;;;;38.28;15.02;;;10.80;84.00;;;;;;6255457;28;20494;-80
2021/11/16 10:05:39;;;;;;;47.83;15.52;;;10.70;84.20;;;;;;6255313;28;20047;-81
2021/11/16 10:08:42;;;;;;;51.72;16.95;;;10.70;84.30;;;;;;6254024;28;20041;-82
2021/11/16 10:11:44;;;;;;;37.22;14.55;;;10.70;84.40;;;;;;6253770;28;20049;-81
2021/11/16 10:14:46;;;;;;;42.40;15.25;;;10.70;84.30;;;;;;6253935;28;20439;-81
2021/11/16 10:17:51;;;;;;;32.63;14.30;;;10.70;84.40;;;;;;6253827;28;20045;-80
2021/11/16 10:20:53;;;;;;;35.10;14.25;;;10.80;84.60;;;;;;6253591;28;20042;-81
2021/11/16 10:23:56;;;;;;;38.45;15.15;;;10.70;84.50;;;;;;6252588;28;20045;-81
2021/11/16 10:27:03;;;;;;;39.22;14.98;;;10.80;84.50;;;;;;6252834;28;20067;-81
2021/11/16 10:30:17;;;;;;;37.67;15.10;;;10.70;84.50;;;;;;6253358;28;20135;-81
2021/11/16 10:33:23;;;;;;;40.80;16.48;;;10.70;84.50;;;;;;6254040;28;20076;-81
2021/11/16 10:36:25;;;;;;;37.97;14.55;;;10.70;84.50;;;;;;6254558;28;20049;-81
2021/11/16 10:39:27;;;;;;;40.78;15.75;;;10.60;84.90;;;;;;6256945;28;20052;-80
2021/11/16 10:42:30;;;;;;;45.95;16.63;;;10.70;85.40;;;;;;6278658;28;20121;-80
2021/11/16 10:45:35;;;;;;;37.72;15.27;;;10.80;85.60;;;;;;6278244;28;20056;-79
2021/11/16 10:48:39;;;;;;;43.10;15.48;;;10.70;85.40;;;;;;6278928;28;20124;-81
2021/11/16 10:51:45;;;;;;;37.35;16.25;;;10.80;85.50;;;;;;6278452;28;20077;-81
2021/11/16 10:54:57;;;;;;;44.95;17.00;;;10.80;85.50;;;;;;6278885;28;20055;-81
2021/11/16 10:58:04;;;;;;;39.25;14.80;;;10.80;85.30;;;;;;6277687;28;20052;-80
2021/11/16 11:01:09;;;;;;;41.67;16.45;;;10.90;85.10;;;;;;6277782;28;20056;-81
2021/11/16 11:04:15;;;;;;;38.72;14.98;;;11.00;85.10;;;;;;6280046;28;20122;-81
2021/11/16 11:07:18;;;;;;;40.53;17.00;;;11.00;85.00;;;;;;6266539;28;20045;-81
2021/11/16 11:10:19;;;;;;;30.50;13.52;;;11.10;84.70;;;;;;6252385;28;20046;-82
2021/11/16 11:13:23;;;;;;;39.70;15.48;;;11.10;84.10;;;;;;6252502;28;20126;-80
2021/11/16 11:16:26;;;;;;;37.90;14.43;;;11.20;84.20;;;;;;6252868;28;20129;-81
2021/11/16 11:19:31;;;;;;;34.63;14.55;;;11.30;84.00;;;;;;6253672;28;20045;-80
2021/11/16 11:22:40;;;;;;;42.15;15.55;;;11.30;83.70;;;;;;6253094;28;20045;-80
2021/11/16 11:25:48;;;;;;;34.95;13.77;;;11.40;83.40;;;;;;6253484;28;20056;-80
2021/11/16 11:29:13;;;;;;;45.05;15.35;;;11.40;83.30;;;;;;6253141;28;20064;-80
2021/11/16 11:32:18;;;;;;;36.05;14.98;;;11.30;82.80;;;;;;6252133;28;20044;-80
2021/11/16 11:35:24;;;;;;;35.42;15.18;;;11.30;83.10;;;;;;6254793;28;20049;-82
2021/11/16 11:38:36;;;;;;;29.45;13.73;;;11.30;82.80;;;;;;6252433;28;20065;-80
2021/11/16 11:41:49;;;;;;;35.33;16.77;;;11.40;83.30;;;;;;6250549;28;20419;-81
2021/11/16 11:45:07;;;;;;;37.65;14.15;;;11.50;82.50;;;;;;6253459;28;20042;-81
2021/11/16 11:48:12;;;;;;;31.67;14.40;;;11.50;82.40;;;;;;6253301;28;20045;-81
2021/11/16 11:51:16;;;;;;;37.28;13.88;;;11.50;82.30;;;;;;6253222;28;20053;-82
2021/11/16 11:54:18;;;;;;;39.92;17.05;;;11.50;82.10;;;;;;6252776;28;20503;-81
2021/11/16 11:57:20;;;;;;;31.55;14.63;;;11.50;82.10;;;;;;6249030;28;20120;-80
2021/11/16 12:00:22;;;;;;;28.15;11.75;;;11.60;81.80;;;;;;6244639;28;20422;-81
2021/11/16 12:03:25;;;;;;;30.35;14.15;;;11.50;81.50;;;;;;6253160;28;20059;-80
2021/11/16 12:06:30;;;;;;;32.15;14.13;;;11.60;81.60;;;;;;6250222;28;20499;-79
2021/11/16 12:09:32;;;;;;;25.27;12.35;;;11.60;81.30;;;;;;6250664;28;20046;-80
2021/11/16 12:12:34;;;;;;;25.13;12.50;;;11.60;80.10;;;;;;6250905;28;20129;-81
2021/11/16 12:15:42;;;;;;;31.85;14.25;;;11.50;80.30;;;;;;6289214;22;20140;-86
2021/11/16 12:18:45;;;;;;;;;;;11.50;80.60;;;;;;6249035;28;20045;-86
2021/11/16 12:21:49;;;;;;;32.03;12.18;;;11.50;80.70;;;;;;6248180;28;20324;-85
2021/11/16 12:24:54;;;;;;;29.20;11.98;;;11.60;80.20;;;;;;6249416;28;20065;-85
2021/11/16 12:27:57;;;;;;;30.65;12.82;;;11.60;80.30;;;;;;6248919;28;20124;-85
2021/11/16 12:31:02;;;;;;;29.63;14.73;;;11.60;80.50;;;;;;6250676;28;20095;-86
2021/11/16 12:34:04;;;;;;;26.83;13.55;;;11.60;80.20;;;;;;6257706;28;20045;-85
2021/11/16 12:37:10;;;;;;;28.75;12.57;;;11.70;80.00;;;;;;6257296;28;20148;-82
2021/11/16 12:40:16;;;;;;;28.23;13.48;;;11.70;80.00;;;;;;6254554;28;20050;-82
2021/11/16 12:43:21;;;;;;;32.30;12.77;;;11.70;80.00;;;;;;6254960;28;20187;-82
2021/11/16 12:46:24;;;;;;;27.42;11.35;;;11.70;80.00;;;;;;6276203;28;20048;-82
2021/11/16 12:49:33;;;;;;;29.92;13.68;;;11.70;79.70;;;;;;6265587;28;20049;-84
2021/11/16 12:52:46;;;;;;;31.67;15.52;;;11.70;79.80;;;;;;6254796;28;20041;-87
2021/11/16 12:55:53;;;;;;;35.55;13.75;;;11.70;79.80;;;;;;6251355;28;20420;-82
2021/11/16 12:58:57;;;;;;;39.88;16.17;;;11.70;79.90;;;;;;6254861;28;20471;-84
2021/11/16 13:02:00;;;;;;;29.58;13.57;;;11.70;80.10;;;;;;6251820;28;20053;-85
2021/11/16 13:05:06;;;;;;;33.85;14.95;;;11.80;80.10;;;;;;6254952;28;20049;-80
2021/11/16 13:08:11;;;;;;;32.75;12.32;;;11.70;79.90;;;;;;6255501;28;20057;-84
2021/11/16 13:11:13;;;;;;;36.10;14.60;;;11.70;79.80;;;;;;6255628;28;20404;-84
2021/11/16 13:14:45;;;;;;;32.53;13.77;;;11.70;79.60;;;;;;6253564;28;20168;-85
2021/11/16 13:17:51;;;;;;;54.17;22.05;;;11.70;79.70;;;;;;6251317;28;20041;-84
2021/11/16 13:20:57;;;;;;;62.95;31.48;;;11.70;79.70;;;;;;6250792;28;20064;-84
2021/11/16 13:24:03;;;;;;;45.40;18.98;;;11.70;79.70;;;;;;6253889;28;20049;-85
2021/11/16 13:27:05;;;;;;;59.85;26.48;;;11.70;79.60;;;;;;6261015;28;20053;-85
2021/11/16 13:30:23;;;;;;;48.92;22.13;;;11.70;79.70;;;;;;6256110;28;20045;-83
2021/11/16 13:33:45;;;;;;;38.05;13.93;;;11.70;79.70;;;;;;6253567;28;20124;-83
2021/11/16 13:36:53;;;;;;;34.00;14.35;;;11.70;79.80;;;;;;6251139;28;20496;-84
2021/11/16 13:40:12;;;;;;;30.67;13.80;;;11.70;79.70;;;;;;6243546;28;20050;-84
2021/11/16 13:43:14;;;;;;;33.25;13.27;;;11.70;79.70;;;;;;6229557;28;20514;-85
2021/11/16 13:46:16;;;;;;;31.60;14.27;;;11.60;79.70;;;;;;6230915;28;20210;-83
2021/11/16 13:49:21;;;;;;;37.45;15.43;;;11.60;79.70;;;;;;6247874;28;20068;-86
2021/11/16 13:52:29;;;;;;;34.25;14.90;;;11.60;79.60;;;;;;6248564;28;20048;-86
2021/11/16 13:55:34;;;;;;;31.20;13.80;;;11.50;79.70;;;;;;6225935;28;20415;-86
2021/11/16 13:58:36;;;;;;;35.03;13.80;;;11.60;79.70;;;;;;6248467;28;20207;-87
2021/11/16 14:01:37;;;;;;;34.35;13.45;;;11.50;79.70;;;;;;6234549;28;20072;-87
2021/11/16 14:04:40;;;;;;;29.20;13.15;;;11.50;79.80;;;;;;6232192;28;20048;-86
2021/11/16 14:07:51;;;;;;;33.88;14.85;;;11.40;79.90;;;;;;6259841;28;20099;-86
2021/11/16 14:10:57;;;;;;;31.20;13.35;;;11.40;80.30;;;;;;6250985;28;20042;-83
2021/11/16 14:14:00;;;;;;;33.38;12.18;;;11.40;81.10;;;;;;6231887;28;20414;-84
2021/11/16 14:17:09;;;;;;;29.90;12.50;;;11.40;81.00;;;;;;6230511;28;20101;-83
2021/11/16 14:20:11;;;;;;;32.72;12.80;;;11.40;80.80;;;;;;6230981;28;20057;-86
2021/11/16 14:23:16;;;;;;;34.47;14.02;;;11.40;80.90;;;;;;6227212;28;20495;-85
2021/11/16 14:26:23;;;;;;;28.85;13.02;;;11.40;81.30;;;;;;6225655;28;20129;-86
2021/11/16 14:29:27;;;;;;;37.28;15.88;;;11.40;80.70;;;;;;6225959;28;20147;-84
2021/11/16 14:32:28;;;;;;;36.25;13.45;;;11.30;80.70;;;;;;6224302;28;20089;-85
2021/11/16 14:35:30;;;;;;;36.05;14.07;;;11.30;80.70;;;;;;6227676;28;20069;-85
2021/11/16 14:38:36;;;;;;;29.20;12.38;;;11.30;80.80;;;;;;6239098;28;20046;-83
2021/11/16 14:41:45;;;;;;;28.27;13.63;;;11.30;80.80;;;;;;6242699;28;20129;-82
2021/11/16 14:44:48;;;;;;;;;;;11.20;80.70;;;;;;6261539;28;20131;-83
2021/11/16 14:47:50;;;;;;;36.58;13.52;;;11.20;80.70;;;;;;6277573;28;20011;-83
2021/11/16 14:51:04;;;;;;;36.30;14.30;;;11.20;80.50;;;;;;6278385;28;20052;-83
2021/11/16 14:54:09;;;;;;;32.83;13.50;;;11.20;81.10;;;;;;6276553;28;20532;-83
2021/11/16 14:57:12;;;;;;;30.13;13.70;;;11.20;80.90;;;;;;6276762;28;20113;-83
2021/11/16 15:00:19;;;;;;;35.70;13.95;;;11.20;80.80;;;;;;6262777;28;20045;-84
2021/11/16 15:03:21;;;;;;;29.10;13.15;;;11.20;82.50;;;;;;6253495;28;20065;-82
2021/11/16 15:06:25;;;;;;;25.58;12.00;;;11.10;81.60;;;;;;6272236;28;20045;-85
2021/11/16 15:09:26;;;;;;;37.35;14.25;;;11.10;81.50;;;;;;6260679;28;20537;-85
2021/11/16 15:12:31;;;;;;;33.30;13.98;;;11.10;81.40;;;;;;6256638;28;20041;-86
2021/11/16 15:15:35;;;;;;;30.48;12.90;;;11.00;81.30;;;;;;6254848;28;20073;-85
2021/11/16 15:18:37;;;;;;;34.28;15.27;;;11.10;84.00;;;;;;6255919;28;20049;-85
2021/11/16 15:21:50;;;;;;;31.20;13.52;;;11.10;82.60;;;;;;6257322;28;20068;-85
2021/11/16 15:25:06;;;;;;;37.72;13.90;;;11.00;82.10;;;;;;6257724;28;20533;-84
2021/11/16 15:28:11;;;;;;;37.20;12.68;;;11.00;82.00;;;;;;6254965;28;20083;-86
2021/11/16 15:31:14;;;;;;;30.77;12.15;;;10.90;82.00;;;;;;6259792;28;20049;-85
2021/11/16 15:34:16;;;;;;;28.27;12.15;;;10.80;82.00;;;;;;6252063;28;20053;-87
2021/11/16 15:37:17;;;;;;;32.45;12.02;;;10.80;82.00;;;;;;6250026;28;20072;-86
2021/11/16 15:40:22;;;;;;;35.55;14.77;;;10.80;82.20;;;;;;6255512;28;20479;-83
2021/11/16 15:43:51;;;;;;;32.60;12.95;;;10.70;82.40;;;;;;6253153;28;20064;-82